sensor_id;sensor_type;location;lat;lon;timestamp;temperature;humidity
3416;DHT22;1721;51.238;9.562;2022-12-24T00:02:21;10.90;99.90
3416;DHT22;1721;51.238;9.562;2022-12-24T00:04:47;10.90;99.90
3416;DHT22;1721;51.238;9.562;2022-12-24T00:07:13;10.70;99.90
3416;DHT22;1721;51.238;9.562;2022-12-24T00:09:38;10.80;99.90
3416;DHT22;1721;51.238;9.562;2022-12-24T00:12:04;10.90;99.90
3416;DHT22;1721;51.238;9.562;2022-12-24T00:14:30;10.90;99.90
3416;DHT22;1721;51.238;9.562;2022-12-24T00:16:55;11.00;99.90
3416;DHT22;1721;51.238;9.562;2022-12-24T00:19:21;11.00;99.90
3416;DHT22;1721;51.238;9.562;2022-12-24T00:21:46;10.90;99.90
3416;DHT22;1721;51.238;9.562;2022-12-24T00:24:12;10.90;99.90
3416;DHT22;1721;51.238;9.562;2022-12-24T00:26:37;10.90;99.90
3416;DHT22;1721;51.238;9.562;2022-12-24T00:29:03;10.80;99.90
3416;DHT22;1721;51.238;9.562;2022-12-24T00:31:29;10.90;99.90
3416;DHT22;1721;51.238;9.562;2022-12-24T00:33:54;10.70;99.90
3416;DHT22;1721;51.238;9.562;2022-12-24T00:36:20;10.70;99.90
3416;DHT22;1721;51.238;9.562;2022-12-24T00:38:46;10.70;99.90
3416;DHT22;1721;51.238;9.562;2022-12-24T00:41:12;10.80;99.90
3416;DHT22;1721;51.238;9.562;2022-12-24T00:44:01;10.80;99.90
3416;DHT22;1721;51.238;9.562;2022-12-24T00:46:28;10.80;99.90
3416;DHT22;1721;51.238;9.562;2022-12-24T00:48:54;10.90;99.90
3416;DHT22;1721;51.238;9.562;2022-12-24T00:51:20;10.90;99.90
3416;DHT22;1721;51.238;9.562;2022-12-24T00:53:46;10.90;99.90
3416;DHT22;1721;51.238;9.562;2022-12-24T00:56:12;10.80;99.90
3416;DHT22;1721;51.238;9.562;2022-12-24T00:58:37;10.80;99.90
3416;DHT22;1721;51.238;9.562;2022-12-24T01:01:04;10.80;99.90
3416;DHT22;1721;51.238;9.562;2022-12-24T01:03:30;10.80;99.90
3416;DHT22;1721;51.238;9.562;2022-12-24T01:06:07;10.90;99.90
3416;DHT22;1721;51.238;9.562;2022-12-24T01:08:34;10.90;99.90
3416;DHT22;1721;51.238;9.562;2022-12-24T01:11:00;11.00;99.90
3416;DHT22;1721;51.238;9.562;2022-12-24T01:13:26;10.90;99.90
3416;DHT22;1721;51.238;9.562;2022-12-24T01:15:52;10.90;99.90
3416;DHT22;1721;51.238;9.562;2022-12-24T01:18:18;10.90;99.90
3416;DHT22;1721;51.238;9.562;2022-12-24T01:20:44;11.00;99.90
3416;DHT22;1721;51.238;9.562;2022-12-24T01:23:09;11.00;99.90
3416;DHT22;1721;51.238;9.562;2022-12-24T01:25:37;11.00;99.90
3416;DHT22;1721;51.238;9.562;2022-12-24T01:28:03;11.10;99.90
3416;DHT22;1721;51.238;9.562;2022-12-24T01:30:29;11.00;99.90
3416;DHT22;1721;51.238;9.562;2022-12-24T01:32:54;11.20;99.90
3416;DHT22;1721;51.238;9.562;2022-12-24T01:35:20;11.10;99.90
3416;DHT22;1721;51.238;9.562;2022-12-24T01:37:45;11.10;99.90
3416;DHT22;1721;51.238;9.562;2022-12-24T01:40:16;11.10;99.90
3416;DHT22;1721;51.238;9.562;2022-12-24T01:43:00;11.30;99.90
3416;DHT22;1721;51.238;9.562;2022-12-24T01:48:34;11.40;99.90
3416;DHT22;1721;51.238;9.562;2022-12-24T01:51:33;11.20;99.90
3416;DHT22;1721;51.238;9.562;2022-12-24T01:54:21;11.00;99.90
3416;DHT22;1721;51.238;9.562;2022-12-24T01:56:52;10.70;99.90
3416;DHT22;1721;51.238;9.562;2022-12-24T01:59:20;10.80;99.90
3416;DHT22;1721;51.238;9.562;2022-12-24T02:01:49;10.90;99.90
3416;DHT22;1721;51.238;9.562;2022-12-24T02:04:36;10.80;99.90
3416;DHT22;1721;51.238;9.562;2022-12-24T02:07:02;10.70;99.90
3416;DHT22;1721;51.238;9.562;2022-12-24T02:09:28;10.60;99.90
3416;DHT22;1721;51.238;9.562;2022-12-24T02:11:55;10.50;99.90
3416;DHT22;1721;51.238;9.562;2022-12-24T02:14:21;10.50;99.90
3416;DHT22;1721;51.238;9.562;2022-12-24T02:32:16;10.70;99.90
3416;DHT22;1721;51.238;9.562;2022-12-24T02:34:29;10.80;99.90
3416;DHT22;1721;51.238;9.562;2022-12-24T02:37:02;10.60;99.90
3416;DHT22;1721;51.238;9.562;2022-12-24T02:39:51;10.60;99.90
3416;DHT22;1721;51.238;9.562;2022-12-24T02:42:22;10.60;99.90
3416;DHT22;1721;51.238;9.562;2022-12-24T02:45:07;10.60;99.90
3416;DHT22;1721;51.238;9.562;2022-12-24T02:47:34;10.60;99.90
3416;DHT22;1721;51.238;9.562;2022-12-24T02:50:02;10.60;99.90
3416;DHT22;1721;51.238;9.562;2022-12-24T02:52:35;10.70;99.90
3416;DHT22;1721;51.238;9.562;2022-12-24T02:55:06;10.60;99.90
3416;DHT22;1721;51.238;9.562;2022-12-24T03:00:16;10.60;99.90
3416;DHT22;1721;51.238;9.562;2022-12-24T03:03:11;10.50;99.90
3416;DHT22;1721;51.238;9.562;2022-12-24T03:05:50;10.50;99.90
3416;DHT22;1721;51.238;9.562;2022-12-24T03:10:53;10.50;99.90
3416;DHT22;1721;51.238;9.562;2022-12-24T03:13:22;10.50;99.90
3416;DHT22;1721;51.238;9.562;2022-12-24T03:15:49;10.40;99.80
3416;DHT22;1721;51.238;9.562;2022-12-24T03:18:18;10.30;99.60
3416;DHT22;1721;51.238;9.562;2022-12-24T03:20:49;10.00;99.90
3416;DHT22;1721;51.238;9.562;2022-12-24T03:23:18;9.80;99.90
3416;DHT22;1721;51.238;9.562;2022-12-24T03:25:44;9.70;99.90
3416;DHT22;1721;51.238;9.562;2022-12-24T03:28:15;9.80;99.90
3416;DHT22;1721;51.238;9.562;2022-12-24T03:30:43;9.80;99.90
3416;DHT22;1721;51.238;9.562;2022-12-24T03:33:10;9.80;99.90
3416;DHT22;1721;51.238;9.562;2022-12-24T03:35:36;9.90;99.90
3416;DHT22;1721;51.238;9.562;2022-12-24T03:38:01;10.00;99.90
3416;DHT22;1721;51.238;9.562;2022-12-24T03:40:27;10.10;99.90
3416;DHT22;1721;51.238;9.562;2022-12-24T03:42:52;10.10;99.90
3416;DHT22;1721;51.238;9.562;2022-12-24T03:45:18;10.30;99.90
3416;DHT22;1721;51.238;9.562;2022-12-24T03:47:43;10.30;99.90
3416;DHT22;1721;51.238;9.562;2022-12-24T03:50:09;10.30;99.90
3416;DHT22;1721;51.238;9.562;2022-12-24T03:52:35;10.40;99.90
3416;DHT22;1721;51.238;9.562;2022-12-24T03:55:00;10.40;99.90
3416;DHT22;1721;51.238;9.562;2022-12-24T03:57:26;10.50;99.90
3416;DHT22;1721;51.238;9.562;2022-12-24T03:59:51;10.70;99.90
3416;DHT22;1721;51.238;9.562;2022-12-24T04:02:17;10.70;99.90
3416;DHT22;1721;51.238;9.562;2022-12-24T04:04:43;10.80;99.70
3416;DHT22;1721;51.238;9.562;2022-12-24T04:07:08;10.80;99.70
3416;DHT22;1721;51.238;9.562;2022-12-24T04:09:34;10.80;99.70
3416;DHT22;1721;51.238;9.562;2022-12-24T04:11:59;10.70;99.30
3416;DHT22;1721;51.238;9.562;2022-12-24T04:14:25;10.60;99.30
3416;DHT22;1721;51.238;9.562;2022-12-24T04:16:51;10.50;99.30
3416;DHT22;1721;51.238;9.562;2022-12-24T04:19:16;10.40;99.10
3416;DHT22;1721;51.238;9.562;2022-12-24T04:21:42;10.30;99.20
3416;DHT22;1721;51.238;9.562;2022-12-24T04:24:07;10.30;99.30
3416;DHT22;1721;51.238;9.562;2022-12-24T04:26:33;10.20;99.30
3416;DHT22;1721;51.238;9.562;2022-12-24T04:28:58;10.10;99.30
3416;DHT22;1721;51.238;9.562;2022-12-24T04:31:24;10.00;99.60
3416;DHT22;1721;51.238;9.562;2022-12-24T04:33:51;10.00;99.80
3416;DHT22;1721;51.238;9.562;2022-12-24T04:36:17;9.90;99.90
3416;DHT22;1721;51.238;9.562;2022-12-24T04:38:44;9.80;99.90
3416;DHT22;1721;51.238;9.562;2022-12-24T04:41:18;9.80;99.90
3416;DHT22;1721;51.238;9.562;2022-12-24T04:43:44;9.80;99.90
3416;DHT22;1721;51.238;9.562;2022-12-24T04:46:12;9.70;99.90
3416;DHT22;1721;51.238;9.562;2022-12-24T04:48:46;9.70;99.90
3416;DHT22;1721;51.238;9.562;2022-12-24T04:51:13;9.50;99.90
3416;DHT22;1721;51.238;9.562;2022-12-24T04:53:40;9.50;99.90
3416;DHT22;1721;51.238;9.562;2022-12-24T04:56:32;9.40;99.90
3416;DHT22;1721;51.238;9.562;2022-12-24T04:58:59;9.50;99.90
3416;DHT22;1721;51.238;9.562;2022-12-24T05:01:30;9.50;99.90
3416;DHT22;1721;51.238;9.562;2022-12-24T05:03:56;9.30;99.90
3416;DHT22;1721;51.238;9.562;2022-12-24T05:06:29;9.20;99.90
3416;DHT22;1721;51.238;9.562;2022-12-24T05:08:56;9.10;99.90
3416;DHT22;1721;51.238;9.562;2022-12-24T05:11:23;9.10;99.90
3416;DHT22;1721;51.238;9.562;2022-12-24T05:13:49;9.10;99.90
3416;DHT22;1721;51.238;9.562;2022-12-24T05:16:16;9.00;99.90
3416;DHT22;1721;51.238;9.562;2022-12-24T05:18:42;9.10;99.90
3416;DHT22;1721;51.238;9.562;2022-12-24T05:21:19;9.20;99.90
3416;DHT22;1721;51.238;9.562;2022-12-24T05:23:45;9.10;99.90
3416;DHT22;1721;51.238;9.562;2022-12-24T05:26:40;9.10;99.90
3416;DHT22;1721;51.238;9.562;2022-12-24T05:29:08;9.10;99.90
3416;DHT22;1721;51.238;9.562;2022-12-24T05:31:36;9.20;99.90
3416;DHT22;1721;51.238;9.562;2022-12-24T05:34:05;9.30;99.90
3416;DHT22;1721;51.238;9.562;2022-12-24T05:36:31;9.40;99.90
3416;DHT22;1721;51.238;9.562;2022-12-24T05:38:57;9.40;99.90
3416;DHT22;1721;51.238;9.562;2022-12-24T05:41:23;9.50;99.90
3416;DHT22;1721;51.238;9.562;2022-12-24T05:43:49;9.60;99.90
3416;DHT22;1721;51.238;9.562;2022-12-24T05:46:17;9.70;99.90
3416;DHT22;1721;51.238;9.562;2022-12-24T05:48:43;9.60;99.90
3416;DHT22;1721;51.238;9.562;2022-12-24T05:51:11;9.50;99.90
3416;DHT22;1721;51.238;9.562;2022-12-24T05:53:37;9.20;99.90
3416;DHT22;1721;51.238;9.562;2022-12-24T05:56:05;9.10;99.90
3416;DHT22;1721;51.238;9.562;2022-12-24T05:58:31;9.20;99.90
3416;DHT22;1721;51.238;9.562;2022-12-24T06:00:56;9.20;99.90
3416;DHT22;1721;51.238;9.562;2022-12-24T06:03:22;9.00;99.90
3416;DHT22;1721;51.238;9.562;2022-12-24T06:05:48;9.00;99.90
3416;DHT22;1721;51.238;9.562;2022-12-24T06:08:13;9.00;99.90
3416;DHT22;1721;51.238;9.562;2022-12-24T06:10:39;9.00;99.90
3416;DHT22;1721;51.238;9.562;2022-12-24T06:13:04;8.90;99.90
3416;DHT22;1721;51.238;9.562;2022-12-24T06:15:30;8.90;99.90
3416;DHT22;1721;51.238;9.562;2022-12-24T06:17:55;8.80;99.90
3416;DHT22;1721;51.238;9.562;2022-12-24T06:20:21;8.80;99.90
3416;DHT22;1721;51.238;9.562;2022-12-24T06:22:46;9.00;99.90
3416;DHT22;1721;51.238;9.562;2022-12-24T06:25:12;9.10;99.90
3416;DHT22;1721;51.238;9.562;2022-12-24T06:27:38;9.20;99.90
3416;DHT22;1721;51.238;9.562;2022-12-24T06:30:03;9.20;99.90
3416;DHT22;1721;51.238;9.562;2022-12-24T06:32:29;9.20;99.90
3416;DHT22;1721;51.238;9.562;2022-12-24T06:34:55;9.20;99.90
3416;DHT22;1721;51.238;9.562;2022-12-24T06:37:20;9.10;99.90
3416;DHT22;1721;51.238;9.562;2022-12-24T06:39:46;9.20;99.90
3416;DHT22;1721;51.238;9.562;2022-12-24T06:42:12;9.00;99.90
3416;DHT22;1721;51.238;9.562;2022-12-24T06:44:38;8.90;99.90
3416;DHT22;1721;51.238;9.562;2022-12-24T06:47:03;8.90;99.90
3416;DHT22;1721;51.238;9.562;2022-12-24T06:49:29;8.90;99.90
3416;DHT22;1721;51.238;9.562;2022-12-24T06:51:54;9.20;99.90
3416;DHT22;1721;51.238;9.562;2022-12-24T06:54:20;9.20;99.90
3416;DHT22;1721;51.238;9.562;2022-12-24T06:56:45;9.20;99.90
3416;DHT22;1721;51.238;9.562;2022-12-24T06:59:11;9.10;99.90
3416;DHT22;1721;51.238;9.562;2022-12-24T07:01:36;9.30;99.90
3416;DHT22;1721;51.238;9.562;2022-12-24T07:04:02;9.30;99.90
3416;DHT22;1721;51.238;9.562;2022-12-24T07:06:28;9.20;99.90
3416;DHT22;1721;51.238;9.562;2022-12-24T07:08:54;9.20;99.90
3416;DHT22;1721;51.238;9.562;2022-12-24T07:11:20;8.90;99.90
3416;DHT22;1721;51.238;9.562;2022-12-24T07:13:46;8.90;99.90
3416;DHT22;1721;51.238;9.562;2022-12-24T07:16:12;9.00;99.90
3416;DHT22;1721;51.238;9.562;2022-12-24T07:18:37;9.10;99.90
3416;DHT22;1721;51.238;9.562;2022-12-24T07:21:04;9.20;99.90
3416;DHT22;1721;51.238;9.562;2022-12-24T07:23:30;9.20;99.90
3416;DHT22;1721;51.238;9.562;2022-12-24T07:26:03;9.30;99.90
3416;DHT22;1721;51.238;9.562;2022-12-24T07:28:29;9.30;99.90
3416;DHT22;1721;51.238;9.562;2022-12-24T07:30:55;9.20;99.90
3416;DHT22;1721;51.238;9.562;2022-12-24T07:33:21;9.20;99.90
3416;DHT22;1721;51.238;9.562;2022-12-24T07:35:47;9.20;99.90
3416;DHT22;1721;51.238;9.562;2022-12-24T07:38:12;9.20;99.90
3416;DHT22;1721;51.238;9.562;2022-12-24T07:40:38;9.10;99.90
3416;DHT22;1721;51.238;9.562;2022-12-24T07:43:03;9.00;99.90
3416;DHT22;1721;51.238;9.562;2022-12-24T07:45:29;9.10;99.90
3416;DHT22;1721;51.238;9.562;2022-12-24T07:47:54;9.10;99.90
3416;DHT22;1721;51.238;9.562;2022-12-24T07:50:20;9.20;99.90
3416;DHT22;1721;51.238;9.562;2022-12-24T07:52:46;9.10;99.90
3416;DHT22;1721;51.238;9.562;2022-12-24T07:55:11;9.20;99.90
3416;DHT22;1721;51.238;9.562;2022-12-24T07:57:37;9.10;99.90
3416;DHT22;1721;51.238;9.562;2022-12-24T08:00:02;9.10;99.90
3416;DHT22;1721;51.238;9.562;2022-12-24T08:02:28;9.10;99.90
3416;DHT22;1721;51.238;9.562;2022-12-24T08:04:54;8.80;99.90
3416;DHT22;1721;51.238;9.562;2022-12-24T08:07:19;8.70;99.90
3416;DHT22;1721;51.238;9.562;2022-12-24T08:09:45;8.60;99.90
3416;DHT22;1721;51.238;9.562;2022-12-24T08:12:11;8.70;99.90
3416;DHT22;1721;51.238;9.562;2022-12-24T08:14:36;8.80;99.90
3416;DHT22;1721;51.238;9.562;2022-12-24T08:17:02;9.00;99.90
3416;DHT22;1721;51.238;9.562;2022-12-24T08:19:27;9.00;99.90
3416;DHT22;1721;51.238;9.562;2022-12-24T08:21:53;9.10;99.90
3416;DHT22;1721;51.238;9.562;2022-12-24T08:24:18;9.10;99.90
3416;DHT22;1721;51.238;9.562;2022-12-24T08:26:44;9.10;99.90
3416;DHT22;1721;51.238;9.562;2022-12-24T08:29:09;9.10;99.90
3416;DHT22;1721;51.238;9.562;2022-12-24T08:31:36;9.40;99.90
3416;DHT22;1721;51.238;9.562;2022-12-24T08:34:06;9.40;99.90
3416;DHT22;1721;51.238;9.562;2022-12-24T08:36:32;9.30;99.90
3416;DHT22;1721;51.238;9.562;2022-12-24T08:38:58;9.40;99.90
3416;DHT22;1721;51.238;9.562;2022-12-24T08:41:28;9.40;99.90
3416;DHT22;1721;51.238;9.562;2022-12-24T08:43:54;9.50;99.90
3416;DHT22;1721;51.238;9.562;2022-12-24T08:46:19;9.60;99.90
3416;DHT22;1721;51.238;9.562;2022-12-24T08:48:45;9.70;99.90
3416;DHT22;1721;51.238;9.562;2022-12-24T08:51:11;9.60;99.90
3416;DHT22;1721;51.238;9.562;2022-12-24T08:53:37;9.60;99.90
3416;DHT22;1721;51.238;9.562;2022-12-24T08:56:04;9.50;99.90
3416;DHT22;1721;51.238;9.562;2022-12-24T08:58:31;9.50;99.90
3416;DHT22;1721;51.238;9.562;2022-12-24T09:00:57;9.70;99.90
3416;DHT22;1721;51.238;9.562;2022-12-24T09:03:22;9.80;99.90
3416;DHT22;1721;51.238;9.562;2022-12-24T09:05:48;9.70;99.90
3416;DHT22;1721;51.238;9.562;2022-12-24T09:08:13;9.70;99.90
3416;DHT22;1721;51.238;9.562;2022-12-24T09:10:39;9.70;99.90
3416;DHT22;1721;51.238;9.562;2022-12-24T09:13:04;9.70;99.90
3416;DHT22;1721;51.238;9.562;2022-12-24T09:15:30;9.70;99.90
3416;DHT22;1721;51.238;9.562;2022-12-24T09:17:55;9.70;99.90
3416;DHT22;1721;51.238;9.562;2022-12-24T09:20:21;9.70;99.90
3416;DHT22;1721;51.238;9.562;2022-12-24T09:22:47;9.60;99.90
3416;DHT22;1721;51.238;9.562;2022-12-24T09:25:12;9.70;99.90
3416;DHT22;1721;51.238;9.562;2022-12-24T09:27:38;9.60;99.90
3416;DHT22;1721;51.238;9.562;2022-12-24T09:30:05;9.70;99.90
3416;DHT22;1721;51.238;9.562;2022-12-24T09:32:31;9.80;99.90
3416;DHT22;1721;51.238;9.562;2022-12-24T09:34:57;9.90;99.90
3416;DHT22;1721;51.238;9.562;2022-12-24T09:37:22;10.00;99.90
3416;DHT22;1721;51.238;9.562;2022-12-24T09:39:48;10.10;99.90
3416;DHT22;1721;51.238;9.562;2022-12-24T09:42:36;10.10;99.90
3416;DHT22;1721;51.238;9.562;2022-12-24T09:45:20;10.20;99.90
3416;DHT22;1721;51.238;9.562;2022-12-24T09:48:12;10.20;99.90
3416;DHT22;1721;51.238;9.562;2022-12-24T09:51:03;10.20;99.90
3416;DHT22;1721;51.238;9.562;2022-12-24T09:53:42;10.20;99.90
3416;DHT22;1721;51.238;9.562;2022-12-24T09:56:15;10.30;99.90
3416;DHT22;1721;51.238;9.562;2022-12-24T09:58:46;10.40;99.90
3416;DHT22;1721;51.238;9.562;2022-12-24T10:01:14;10.50;99.90
3416;DHT22;1721;51.238;9.562;2022-12-24T10:03:41;10.40;99.90
3416;DHT22;1721;51.238;9.562;2022-12-24T10:06:20;10.20;99.90
3416;DHT22;1721;51.238;9.562;2022-12-24T10:09:22;10.20;99.90
3416;DHT22;1721;51.238;9.562;2022-12-24T10:12:08;10.20;99.90
3416;DHT22;1721;51.238;9.562;2022-12-24T10:14:53;10.50;99.90
3416;DHT22;1721;51.238;9.562;2022-12-24T10:20:06;10.70;99.90
3416;DHT22;1721;51.238;9.562;2022-12-24T10:25:22;10.70;99.90
3416;DHT22;1721;51.238;9.562;2022-12-24T10:27:50;10.70;99.90
3416;DHT22;1721;51.238;9.562;2022-12-24T10:30:20;10.90;99.90
3416;DHT22;1721;51.238;9.562;2022-12-24T10:32:48;10.80;99.90
3416;DHT22;1721;51.238;9.562;2022-12-24T10:35:17;10.60;99.90
3416;DHT22;1721;51.238;9.562;2022-12-24T10:37:46;10.60;99.90
3416;DHT22;1721;51.238;9.562;2022-12-24T10:41:06;10.80;99.90
3416;DHT22;1721;51.238;9.562;2022-12-24T10:43:17;10.70;99.90
3416;DHT22;1721;51.238;9.562;2022-12-24T10:45:49;10.70;99.90
3416;DHT22;1721;51.238;9.562;2022-12-24T10:49:03;10.90;99.90
3416;DHT22;1721;51.238;9.562;2022-12-24T10:54:31;10.90;99.90
3416;DHT22;1721;51.238;9.562;2022-12-24T10:57:04;10.90;99.90
3416;DHT22;1721;51.238;9.562;2022-12-24T11:02:00;10.90;99.90
3416;DHT22;1721;51.238;9.562;2022-12-24T11:04:30;11.00;99.90
3416;DHT22;1721;51.238;9.562;2022-12-24T11:09:30;11.00;99.90
3416;DHT22;1721;51.238;9.562;2022-12-24T11:11:57;11.10;99.90
3416;DHT22;1721;51.238;9.562;2022-12-24T11:14:24;11.30;99.90
3416;DHT22;1721;51.238;9.562;2022-12-24T11:16:54;11.30;99.90
3416;DHT22;1721;51.238;9.562;2022-12-24T11:19:35;11.40;99.90
3416;DHT22;1721;51.238;9.562;2022-12-24T11:22:05;11.60;99.90
3416;DHT22;1721;51.238;9.562;2022-12-24T11:24:34;11.70;99.90
3416;DHT22;1721;51.238;9.562;2022-12-24T11:27:29;11.50;99.80
3416;DHT22;1721;51.238;9.562;2022-12-24T11:33:28;11.70;99.90
3416;DHT22;1721;51.238;9.562;2022-12-24T11:35:40;11.70;99.60
3416;DHT22;1721;51.238;9.562;2022-12-24T11:38:08;11.90;99.60
3416;DHT22;1721;51.238;9.562;2022-12-24T11:40:35;12.10;99.60
3416;DHT22;1721;51.238;9.562;2022-12-24T11:43:03;12.20;99.40
3416;DHT22;1721;51.238;9.562;2022-12-24T11:45:31;12.40;99.20
3416;DHT22;1721;51.238;9.562;2022-12-24T11:47:57;12.30;98.50
3416;DHT22;1721;51.238;9.562;2022-12-24T11:55:54;11.90;98.30
3416;DHT22;1721;51.238;9.562;2022-12-24T11:58:42;11.90;98.70
3416;DHT22;1721;51.238;9.562;2022-12-24T12:03:47;11.50;99.00
3416;DHT22;1721;51.238;9.562;2022-12-24T12:06:23;11.40;99.00
3416;DHT22;1721;51.238;9.562;2022-12-24T12:08:58;11.30;99.10
3416;DHT22;1721;51.238;9.562;2022-12-24T12:11:25;11.10;99.30
3416;DHT22;1721;51.238;9.562;2022-12-24T12:13:52;11.20;99.40
3416;DHT22;1721;51.238;9.562;2022-12-24T12:16:22;11.10;99.60
3416;DHT22;1721;51.238;9.562;2022-12-24T12:19:02;11.20;99.70
3416;DHT22;1721;51.238;9.562;2022-12-24T12:21:37;11.10;99.80
3416;DHT22;1721;51.238;9.562;2022-12-24T12:24:12;11.20;99.80
3416;DHT22;1721;51.238;9.562;2022-12-24T12:26:40;11.30;99.90
3416;DHT22;1721;51.238;9.562;2022-12-24T12:29:30;11.30;99.90
3416;DHT22;1721;51.238;9.562;2022-12-24T12:32:03;11.30;99.90
3416;DHT22;1721;51.238;9.562;2022-12-24T12:34:34;11.20;99.90
3416;DHT22;1721;51.238;9.562;2022-12-24T12:37:14;11.40;99.90
3416;DHT22;1721;51.238;9.562;2022-12-24T12:39:41;11.30;99.90
3416;DHT22;1721;51.238;9.562;2022-12-24T12:55:47;11.20;99.90
3416;DHT22;1721;51.238;9.562;2022-12-24T12:58:24;11.40;99.90
3416;DHT22;1721;51.238;9.562;2022-12-24T13:00:56;11.60;99.90
3416;DHT22;1721;51.238;9.562;2022-12-24T13:20:01;11.00;99.90
3416;DHT22;1721;51.238;9.562;2022-12-24T13:22:29;10.90;99.90
3416;DHT22;1721;51.238;9.562;2022-12-24T13:24:55;10.90;99.90
3416;DHT22;1721;51.238;9.562;2022-12-24T13:27:26;11.00;99.90
3416;DHT22;1721;51.238;9.562;2022-12-24T13:29:56;10.90;99.90
3416;DHT22;1721;51.238;9.562;2022-12-24T13:34:54;10.60;99.90
3416;DHT22;1721;51.238;9.562;2022-12-24T13:37:38;10.70;99.90
3416;DHT22;1721;51.238;9.562;2022-12-24T13:43:05;10.50;99.90
3416;DHT22;1721;51.238;9.562;2022-12-24T13:50:51;10.20;99.90
3416;DHT22;1721;51.238;9.562;2022-12-24T13:53:36;10.20;99.90
3416;DHT22;1721;51.238;9.562;2022-12-24T13:58:39;10.20;99.90
3416;DHT22;1721;51.238;9.562;2022-12-24T14:01:32;10.20;99.90
3416;DHT22;1721;51.238;9.562;2022-12-24T14:04:01;10.20;99.90
3416;DHT22;1721;51.238;9.562;2022-12-24T14:06:36;10.30;99.90
3416;DHT22;1721;51.238;9.562;2022-12-24T14:09:20;10.40;99.90
3416;DHT22;1721;51.238;9.562;2022-12-24T14:14:39;10.30;99.90
3416;DHT22;1721;51.238;9.562;2022-12-24T14:19:43;10.10;99.90
3416;DHT22;1721;51.238;9.562;2022-12-24T14:22:30;10.20;99.90
3416;DHT22;1721;51.238;9.562;2022-12-24T14:28:06;10.10;99.90
3416;DHT22;1721;51.238;9.562;2022-12-24T14:30:38;10.00;99.90
3416;DHT22;1721;51.238;9.562;2022-12-24T14:33:03;10.00;99.90
3416;DHT22;1721;51.238;9.562;2022-12-24T14:35:37;9.90;99.90
3416;DHT22;1721;51.238;9.562;2022-12-24T14:38:06;10.00;99.90
3416;DHT22;1721;51.238;9.562;2022-12-24T14:46:43;9.80;99.90
3416;DHT22;1721;51.238;9.562;2022-12-24T14:49:13;9.70;99.90
3416;DHT22;1721;51.238;9.562;2022-12-24T15:05:19;9.90;99.90
3416;DHT22;1721;51.238;9.562;2022-12-24T15:07:53;9.80;99.90
3416;DHT22;1721;51.238;9.562;2022-12-24T15:10:41;9.80;99.90
3416;DHT22;1721;51.238;9.562;2022-12-24T15:15:46;9.60;99.90
3416;DHT22;1721;51.238;9.562;2022-12-24T15:18:18;9.60;99.90
3416;DHT22;1721;51.238;9.562;2022-12-24T15:20:48;9.50;99.90
3416;DHT22;1721;51.238;9.562;2022-12-24T15:23:27;9.50;99.90
3416;DHT22;1721;51.238;9.562;2022-12-24T15:26:26;9.40;99.90
3416;DHT22;1721;51.238;9.562;2022-12-24T15:28:54;9.50;99.90
3416;DHT22;1721;51.238;9.562;2022-12-24T15:31:21;9.50;99.90
3416;DHT22;1721;51.238;9.562;2022-12-24T15:33:50;9.50;99.90
3416;DHT22;1721;51.238;9.562;2022-12-24T15:36:36;9.40;99.90
3416;DHT22;1721;51.238;9.562;2022-12-24T15:39:07;9.40;99.90
3416;DHT22;1721;51.238;9.562;2022-12-24T15:41:42;9.40;99.90
3416;DHT22;1721;51.238;9.562;2022-12-24T15:44:34;9.40;99.90
3416;DHT22;1721;51.238;9.562;2022-12-24T15:47:03;9.40;99.90
3416;DHT22;1721;51.238;9.562;2022-12-24T15:49:31;9.30;99.90
3416;DHT22;1721;51.238;9.562;2022-12-24T15:52:07;9.20;99.90
3416;DHT22;1721;51.238;9.562;2022-12-24T15:54:33;9.30;99.90
3416;DHT22;1721;51.238;9.562;2022-12-24T15:57:20;9.20;99.90
3416;DHT22;1721;51.238;9.562;2022-12-24T15:59:55;9.20;99.90
3416;DHT22;1721;51.238;9.562;2022-12-24T16:02:40;9.10;99.90
3416;DHT22;1721;51.238;9.562;2022-12-24T16:08:22;8.90;99.90
3416;DHT22;1721;51.238;9.562;2022-12-24T16:10:48;8.90;99.90
3416;DHT22;1721;51.238;9.562;2022-12-24T16:13:24;8.90;99.90
3416;DHT22;1721;51.238;9.562;2022-12-24T16:18:30;8.90;99.90
3416;DHT22;1721;51.238;9.562;2022-12-24T16:20:56;8.90;99.90
3416;DHT22;1721;51.238;9.562;2022-12-24T16:23:25;8.90;99.90
3416;DHT22;1721;51.238;9.562;2022-12-24T16:25:54;8.90;99.90
3416;DHT22;1721;51.238;9.562;2022-12-24T16:28:19;8.90;99.90
3416;DHT22;1721;51.238;9.562;2022-12-24T16:30:46;8.90;99.90
3416;DHT22;1721;51.238;9.562;2022-12-24T16:33:15;8.90;99.90
3416;DHT22;1721;51.238;9.562;2022-12-24T16:35:41;8.80;99.90
3416;DHT22;1721;51.238;9.562;2022-12-24T16:38:06;8.80;99.90
3416;DHT22;1721;51.238;9.562;2022-12-24T16:40:32;8.80;99.90
3416;DHT22;1721;51.238;9.562;2022-12-24T16:42:58;8.70;99.90
3416;DHT22;1721;51.238;9.562;2022-12-24T16:45:43;8.50;99.90
3416;DHT22;1721;51.238;9.562;2022-12-24T16:48:18;8.50;99.90
3416;DHT22;1721;51.238;9.562;2022-12-24T16:50:43;8.50;99.90
3416;DHT22;1721;51.238;9.562;2022-12-24T16:53:15;8.60;99.90
3416;DHT22;1721;51.238;9.562;2022-12-24T16:55:41;8.50;99.90
3416;DHT22;1721;51.238;9.562;2022-12-24T16:58:08;8.60;99.90
3416;DHT22;1721;51.238;9.562;2022-12-24T17:00:34;8.60;99.90
3416;DHT22;1721;51.238;9.562;2022-12-24T17:03:00;8.60;99.90
3416;DHT22;1721;51.238;9.562;2022-12-24T17:05:26;8.60;99.90
3416;DHT22;1721;51.238;9.562;2022-12-24T17:07:51;8.60;99.90
3416;DHT22;1721;51.238;9.562;2022-12-24T17:10:17;8.60;99.90
3416;DHT22;1721;51.238;9.562;2022-12-24T17:12:43;8.60;99.90
3416;DHT22;1721;51.238;9.562;2022-12-24T17:15:09;8.60;99.90
3416;DHT22;1721;51.238;9.562;2022-12-24T17:17:34;8.50;99.90
3416;DHT22;1721;51.238;9.562;2022-12-24T17:20:00;8.50;99.90
3416;DHT22;1721;51.238;9.562;2022-12-24T17:22:26;8.50;99.90
3416;DHT22;1721;51.238;9.562;2022-12-24T17:24:52;8.40;99.90
3416;DHT22;1721;51.238;9.562;2022-12-24T17:27:19;8.40;99.90
3416;DHT22;1721;51.238;9.562;2022-12-24T17:29:44;8.30;99.90
3416;DHT22;1721;51.238;9.562;2022-12-24T17:32:10;8.40;99.90
3416;DHT22;1721;51.238;9.562;2022-12-24T17:34:36;8.30;99.90
3416;DHT22;1721;51.238;9.562;2022-12-24T17:37:01;8.40;99.90
3416;DHT22;1721;51.238;9.562;2022-12-24T17:39:27;8.40;99.90
3416;DHT22;1721;51.238;9.562;2022-12-24T17:41:52;8.40;99.90
3416;DHT22;1721;51.238;9.562;2022-12-24T17:44:18;8.40;99.90
3416;DHT22;1721;51.238;9.562;2022-12-24T17:46:44;8.40;99.90
3416;DHT22;1721;51.238;9.562;2022-12-24T17:49:09;8.30;99.90
3416;DHT22;1721;51.238;9.562;2022-12-24T17:51:35;8.30;99.90
3416;DHT22;1721;51.238;9.562;2022-12-24T17:54:01;8.30;99.90
3416;DHT22;1721;51.238;9.562;2022-12-24T17:56:27;8.30;99.90
3416;DHT22;1721;51.238;9.562;2022-12-24T17:58:53;8.30;99.90
3416;DHT22;1721;51.238;9.562;2022-12-24T18:01:21;8.30;99.90
3416;DHT22;1721;51.238;9.562;2022-12-24T18:03:48;8.30;99.90
3416;DHT22;1721;51.238;9.562;2022-12-24T18:06:17;8.20;99.90
3416;DHT22;1721;51.238;9.562;2022-12-24T18:08:44;8.30;99.90
3416;DHT22;1721;51.238;9.562;2022-12-24T18:11:18;8.20;99.90
3416;DHT22;1721;51.238;9.562;2022-12-24T18:13:44;8.10;99.90
3416;DHT22;1721;51.238;9.562;2022-12-24T18:16:18;8.10;99.90
3416;DHT22;1721;51.238;9.562;2022-12-24T18:18:45;8.10;99.90
3416;DHT22;1721;51.238;9.562;2022-12-24T18:21:11;8.10;99.90
3416;DHT22;1721;51.238;9.562;2022-12-24T18:23:39;8.00;99.90
3416;DHT22;1721;51.238;9.562;2022-12-24T18:26:05;8.00;99.90
3416;DHT22;1721;51.238;9.562;2022-12-24T18:28:32;8.00;99.90
3416;DHT22;1721;51.238;9.562;2022-12-24T18:31:02;8.00;99.90
3416;DHT22;1721;51.238;9.562;2022-12-24T18:33:30;8.00;99.90